Time;durP1;ratioP1;P1;durP2;ratioP2;P2;SDS_P1;SDS_P2;PMS_P1;PMS_P2;Temp;Humidity;BMP_temperature;BMP_pressure;BME280_temperature;BME280_humidity;BME280_pressure;Samples;Min_cycle;Max_cycle;Signal;HPM_P1;HPM_P2
2021/01/15 00:01:39;;;;;;;7.37;4.20;;;-1.00;99.90;;;;;;5047367;28;20502;-72
2021/01/15 00:04:05;;;;;;;4.97;4.10;;;-0.90;99.90;;;;;;5045683;28;21018;-72
2021/01/15 00:06:31;;;;;;;4.90;4.40;;;-0.80;99.90;;;;;;5041354;28;20198;-72
2021/01/15 00:08:57;;;;;;;4.30;3.90;;;-0.90;99.90;;;;;;5047846;28;20857;-73
2021/01/15 00:11:30;;;;;;;5.40;4.30;;;-0.90;99.90;;;;;;5039719;28;20431;-73
2021/01/15 00:13:56;;;;;;;5.70;4.50;;;-0.90;99.90;;;;;;5045603;28;20516;-73
2021/01/15 00:16:30;;;;;;;6.13;5.53;;;-0.90;99.90;;;;;;5036853;28;20437;-73
2021/01/15 00:18:56;;;;;;;4.43;4.03;;;-0.90;99.90;;;;;;5044541;28;20602;-72
2021/01/15 00:21:26;;;;;;;4.33;3.90;;;-0.90;99.90;;;;;;5045559;28;20435;-73
2021/01/15 00:23:57;;;;;;;4.03;3.73;;;-0.90;99.90;;;;;;5048742;28;20468;-74
2021/01/15 00:26:25;;;;;;;5.23;4.20;;;-1.00;99.90;;;;;;5037045;28;21084;-73
2021/01/15 00:28:51;;;;;;;4.27;3.87;;;-1.10;99.90;;;;;;5060764;28;20465;-73
2021/01/15 00:31:17;;;;;;;4.47;4.07;;;-1.20;99.90;;;;;;5042021;28;20574;-74
2021/01/15 00:33:42;;;;;;;4.97;4.03;;;-1.10;99.90;;;;;;5046327;28;20519;-74
2021/01/15 00:36:09;;;;;;;4.43;3.80;;;-1.10;99.90;;;;;;5048377;28;20257;-73
2021/01/15 00:38:35;;;;;;;4.07;3.67;;;-1.20;99.90;;;;;;5046186;28;20205;-73
2021/01/15 00:41:06;;;;;;;5.40;3.90;;;-1.30;99.90;;;;;;5049775;28;20416;-74
2021/01/15 00:43:33;;;;;;;6.10;4.43;;;-1.30;99.90;;;;;;5064044;28;20444;-74
2021/01/15 00:45:58;;;;;;;4.47;4.00;;;-1.40;99.90;;;;;;5047592;28;20431;-71
2021/01/15 00:48:24;;;;;;;4.40;4.00;;;-1.50;99.90;;;;;;5046698;28;20472;-70
2021/01/15 00:50:50;;;;;;;4.50;4.10;;;-1.50;99.90;;;;;;5047521;28;20182;-74
2021/01/15 00:53:16;;;;;;;9.30;4.00;;;-1.40;99.90;;;;;;5055062;28;20437;-73
2021/01/15 00:55:41;;;;;;;4.57;4.00;;;-1.50;99.90;;;;;;5046408;28;20186;-71
2021/01/15 00:58:10;;;;;;;4.70;4.20;;;-1.40;99.90;;;;;;5046343;28;20555;-72
2021/01/15 01:00:36;;;;;;;4.50;4.10;;;-1.40;99.90;;;;;;5044010;28;20171;-74
2021/01/15 01:03:01;;;;;;;4.10;3.80;;;-1.40;99.90;;;;;;5049280;28;20467;-72
2021/01/15 01:05:27;;;;;;;4.67;3.50;;;-1.50;99.90;;;;;;5048511;28;20232;-71
2021/01/15 01:07:54;;;;;;;4.07;3.53;;;-1.50;99.90;;;;;;5048583;28;20221;-72
2021/01/15 01:10:20;;;;;;;4.10;3.27;;;-1.50;99.90;;;;;;5038562;28;20273;-71
2021/01/15 01:12:45;;;;;;;6.97;3.67;;;-1.50;99.90;;;;;;5049002;28;20464;-73
2021/01/15 01:15:13;;;;;;;4.30;3.60;;;-1.60;99.90;;;;;;5048944;28;20183;-74
2021/01/15 01:17:39;;;;;;;3.80;3.50;;;-1.60;99.90;;;;;;5048781;28;21336;-74
2021/01/15 01:20:06;;;;;;;4.10;3.70;;;-1.70;99.90;;;;;;5047869;28;20447;-73
2021/01/15 01:22:32;;;;;;;3.67;3.27;;;-1.70;99.90;;;;;;5048638;28;20441;-72
2021/01/15 01:24:58;;;;;;;3.73;3.10;;;-1.70;99.90;;;;;;5047695;28;20531;-73
2021/01/15 01:27:24;;;;;;;4.90;3.27;;;-1.70;99.90;;;;;;5046978;28;20261;-72
2021/01/15 01:29:49;;;;;;;4.40;3.77;;;-1.80;99.90;;;;;;5047192;28;21032;-72
2021/01/15 01:32:15;;;;;;;5.53;3.83;;;-1.80;99.90;;;;;;5047167;28;20676;-72
2021/01/15 01:34:40;;;;;;;3.60;3.30;;;-1.80;99.90;;;;;;5045810;28;20677;-72
2021/01/15 01:37:06;;;;;;;5.20;3.87;;;-1.80;99.90;;;;;;5048253;28;20247;-73
2021/01/15 01:39:32;;;;;;;5.23;3.50;;;-1.80;99.90;;;;;;5048128;28;20205;-72
2021/01/15 01:41:58;;;;;;;5.40;3.20;;;-1.80;99.90;;;;;;5041000;28;20185;-72
2021/01/15 01:44:24;;;;;;;4.23;3.90;;;-1.80;99.90;;;;;;5046095;28;20433;-73
2021/01/15 01:46:52;;;;;;;3.93;3.53;;;-1.80;99.90;;;;;;5059107;28;20209;-72
2021/01/15 01:49:18;;;;;;;4.00;3.47;;;-1.70;99.90;;;;;;5047947;28;20483;-73
2021/01/15 01:51:45;;;;;;;4.53;4.07;;;-1.70;99.90;;;;;;5043506;28;20798;-73
2021/01/15 01:54:11;;;;;;;4.10;3.80;;;-1.80;99.90;;;;;;5048103;28;20413;-72
2021/01/15 01:56:39;;;;;;;4.17;3.70;;;-1.70;99.90;;;;;;5045826;28;20467;-72
2021/01/15 01:59:06;;;;;;;4.40;3.60;;;-1.70;99.90;;;;;;5046147;28;20472;-73
2021/01/15 02:01:31;;;;;;;4.10;3.80;;;-1.80;99.90;;;;;;5048139;28;20890;-72
2021/01/15 02:04:04;;;;;;;5.70;3.90;;;-1.70;99.90;;;;;;5044486;28;20443;-73
2021/01/15 02:06:35;;;;;;;4.10;3.70;;;-1.70;99.90;;;;;;5046487;28;20225;-71
2021/01/15 02:09:07;;;;;;;3.73;3.30;;;-1.70;99.90;;;;;;5047894;28;21065;-72
2021/01/15 02:11:54;;;;;;;3.70;3.33;;;-1.80;99.90;;;;;;5045792;28;20471;-74
2021/01/15 02:14:42;;;;;;;4.60;3.90;;;-1.90;99.90;;;;;;5039398;28;20456;-72
2021/01/15 02:17:15;;;;;;;4.57;3.80;;;-1.90;99.90;;;;;;5039464;28;20521;-72
2021/01/15 02:20:02;;;;;;;3.60;3.33;;;-1.90;99.90;;;;;;5047584;28;20510;-72
2021/01/15 02:22:47;;;;;;;4.00;3.60;;;-2.00;99.90;;;;;;5048326;28;20563;-71
2021/01/15 02:25:31;;;;;;;4.07;3.70;;;-1.90;99.90;;;;;;5046083;28;20908;-73
2021/01/15 02:28:33;;;;;;;4.53;3.80;;;-2.00;99.90;;;;;;5045483;28;20980;-73
2021/01/15 02:31:11;;;;;;;4.37;3.40;;;-2.00;99.90;;;;;;5037879;28;20433;-72
2021/01/15 02:34:01;;;;;;;5.37;3.33;;;-1.90;99.90;;;;;;5043706;28;20543;-72
2021/01/15 02:36:35;;;;;;;4.67;4.27;;;-1.90;99.90;;;;;;5045286;28;20498;-73
2021/01/15 02:39:16;;;;;;;5.07;3.40;;;-2.00;99.90;;;;;;5047225;28;20540;-72
2021/01/15 02:41:42;;;;;;;4.37;3.70;;;-2.00;99.90;;;;;;5046872;28;20544;-71
2021/01/15 02:44:11;;;;;;;6.53;3.93;;;-2.10;99.90;;;;;;5045738;28;20440;-72
2021/01/15 02:46:56;;;;;;;4.60;3.47;;;-2.20;99.90;;;;;;5044057;28;20440;-72
2021/01/15 02:49:22;;;;;;;5.60;4.47;;;-2.20;99.90;;;;;;5053263;28;20472;-71
2021/01/15 02:51:48;;;;;;;3.70;3.40;;;-2.20;99.90;;;;;;5046180;28;20779;-72
2021/01/15 02:54:14;;;;;;;4.97;3.70;;;-2.20;99.90;;;;;;5046795;28;20428;-71
2021/01/15 02:56:40;;;;;;;4.07;3.70;;;-2.20;99.90;;;;;;5045067;28;20516;-72
2021/01/15 02:59:06;;;;;;;4.23;3.70;;;-2.10;99.90;;;;;;5042339;28;20271;-73
2021/01/15 03:01:36;;;;;;;5.10;3.30;;;-2.00;99.90;;;;;;5042028;28;20229;-72
2021/01/15 03:04:14;;;;;;;5.03;4.60;;;-2.00;99.90;;;;;;5043270;28;20432;-71
2021/01/15 03:06:49;;;;;;;4.50;3.90;;;-2.10;99.90;;;;;;5060411;28;20444;-71
2021/01/15 03:09:16;;;;;;;4.53;4.13;;;-2.00;99.90;;;;;;5044169;28;20472;-71
2021/01/15 03:11:44;;;;;;;6.37;3.87;;;-1.90;99.90;;;;;;5041599;28;20456;-72
2021/01/15 03:14:11;;;;;;;4.07;3.73;;;-2.10;99.90;;;;;;5045726;28;20436;-70
2021/01/15 03:16:41;;;;;;;4.10;3.70;;;-2.10;99.90;;;;;;5045323;28;20945;-73
2021/01/15 03:19:07;;;;;;;4.83;3.60;;;-2.10;99.90;;;;;;5046626;28;20490;-71
2021/01/15 03:21:37;;;;;;;5.13;3.77;;;-2.10;99.90;;;;;;5046820;28;20451;-71
2021/01/15 03:24:04;;;;;;;5.13;4.00;;;-2.10;99.90;;;;;;5042833;28;20543;-73
2021/01/15 03:26:31;;;;;;;4.27;3.53;;;-2.10;99.90;;;;;;5042892;28;20433;-72
2021/01/15 03:28:56;;;;;;;5.10;3.73;;;-2.10;99.90;;;;;;5040325;28;20476;-70
2021/01/15 03:31:22;;;;;;;4.93;4.10;;;-2.10;99.90;;;;;;5044563;28;20960;-72
2021/01/15 03:33:48;;;;;;;5.00;3.43;;;-2.10;99.90;;;;;;5046579;28;20213;-71
2021/01/15 03:36:13;;;;;;;4.43;3.43;;;-2.10;99.90;;;;;;5044490;28;20245;-69
2021/01/15 03:38:39;;;;;;;3.33;3.03;;;-2.10;99.90;;;;;;5044474;28;20209;-72
2021/01/15 03:41:04;;;;;;;4.17;3.83;;;-2.10;99.90;;;;;;5045019;28;20187;-72
2021/01/15 03:43:30;;;;;;;3.47;3.17;;;-2.20;99.90;;;;;;5045375;28;20228;-70
2021/01/15 03:45:56;;;;;;;4.30;3.90;;;-2.20;99.90;;;;;;5040225;28;20190;-70
2021/01/15 03:48:22;;;;;;;4.00;3.60;;;-2.10;99.90;;;;;;5040732;28;20725;-72
2021/01/15 03:50:48;;;;;;;7.60;4.20;;;-2.10;99.90;;;;;;5046013;28;20440;-72
2021/01/15 03:53:15;;;;;;;5.50;3.83;;;-2.10;99.90;;;;;;5045219;28;20194;-71
2021/01/15 03:55:42;;;;;;;3.80;3.37;;;-2.10;99.90;;;;;;5039101;28;20437;-72
2021/01/15 03:58:07;;;;;;;4.57;3.97;;;-2.20;99.90;;;;;;5041959;28;20456;-72
2021/01/15 04:00:33;;;;;;;4.03;3.67;;;-2.20;99.90;;;;;;5063677;28;20439;-71
2021/01/15 04:02:58;;;;;;;5.13;4.43;;;-2.30;99.90;;;;;;5046289;28;20182;-73
2021/01/15 04:05:24;;;;;;;7.37;4.73;;;-2.20;99.90;;;;;;5045830;28;20178;-72
2021/01/15 04:07:50;;;;;;;5.27;4.77;;;-2.20;99.90;;;;;;5058797;28;20202;-72
2021/01/15 04:10:17;;;;;;;9.27;5.70;;;-2.20;99.90;;;;;;5049885;28;20215;-71
2021/01/15 04:12:44;;;;;;;11.90;7.90;;;-2.20;99.90;;;;;;5048450;28;20182;-72
2021/01/15 04:15:14;;;;;;;15.20;9.10;;;-2.10;99.90;;;;;;5048791;28;20524;-71
2021/01/15 04:17:41;;;;;;;13.43;8.43;;;-2.10;99.90;;;;;;5051387;28;20456;-72
2021/01/15 04:20:09;;;;;;;11.20;7.70;;;-2.10;99.90;;;;;;5050805;28;21052;-71
2021/01/15 04:22:39;;;;;;;13.67;8.73;;;-2.10;99.90;;;;;;5051826;28;20438;-72
2021/01/15 04:25:07;;;;;;;8.70;7.10;;;-2.10;99.90;;;;;;5045578;28;20439;-71
2021/01/15 04:27:34;;;;;;;8.53;5.80;;;-2.20;99.90;;;;;;5043922;28;20471;-70
2021/01/15 04:30:04;;;;;;;7.73;5.70;;;-2.20;99.90;;;;;;5038913;28;20447;-71
2021/01/15 04:32:30;;;;;;;6.40;4.63;;;-2.10;99.90;;;;;;5049736;28;20436;-72
2021/01/15 04:34:55;;;;;;;6.40;5.10;;;-2.20;99.90;;;;;;5046101;28;20421;-72
2021/01/15 04:37:21;;;;;;;4.43;3.90;;;-2.30;99.90;;;;;;5040352;28;20487;-71
2021/01/15 04:39:47;;;;;;;5.93;4.33;;;-2.30;99.90;;;;;;5042402;28;20221;-72
2021/01/15 04:42:14;;;;;;;4.90;4.00;;;-2.20;99.90;;;;;;5045865;28;20193;-72
2021/01/15 04:44:41;;;;;;;6.10;4.00;;;-2.30;99.90;;;;;;5044555;28;20214;-72
2021/01/15 04:47:07;;;;;;;6.97;3.80;;;-2.20;99.90;;;;;;5047565;28;20476;-72
2021/01/15 04:49:35;;;;;;;4.77;3.60;;;-2.20;99.90;;;;;;5054663;28;20473;-72
2021/01/15 04:52:02;;;;;;;6.20;4.30;;;-2.10;99.90;;;;;;5059726;28;20458;-71
2021/01/15 04:54:39;;;;;;;4.13;3.73;;;-2.10;99.90;;;;;;5048931;28;20468;-70
2021/01/15 04:57:11;;;;;;;5.00;4.50;;;-2.10;99.90;;;;;;5047779;28;20941;-72
2021/01/15 04:59:44;;;;;;;4.67;3.43;;;-2.10;99.90;;;;;;5048677;28;20468;-71
2021/01/15 05:02:11;;;;;;;4.00;3.60;;;-2.00;99.90;;;;;;5047790;28;20511;-72
2021/01/15 05:04:37;;;;;;;6.03;3.97;;;-2.00;99.90;;;;;;5048066;28;20551;-72
2021/01/15 05:07:05;;;;;;;6.60;4.47;;;-2.00;99.90;;;;;;5049076;28;20459;-71
2021/01/15 05:09:45;;;;;;;3.97;3.67;;;-1.90;99.90;;;;;;5047839;28;20818;-72
2021/01/15 05:12:18;;;;;;;5.50;3.80;;;-1.70;99.90;;;;;;5048722;28;20432;-72
2021/01/15 05:14:48;;;;;;;4.17;3.87;;;-1.80;99.90;;;;;;5043291;28;20792;-71
2021/01/15 05:17:15;;;;;;;4.17;3.77;;;-1.70;99.90;;;;;;5045121;28;21303;-71
2021/01/15 05:19:41;;;;;;;8.70;4.47;;;-1.70;99.90;;;;;;5047368;28;20455;-73
2021/01/15 05:22:08;;;;;;;4.97;3.97;;;-1.70;99.90;;;;;;5060775;28;20524;-72
2021/01/15 05:24:35;;;;;;;4.07;3.77;;;-1.70;99.90;;;;;;5046500;28;20512;-72
2021/01/15 05:27:38;;;;;;;6.23;4.00;;;-1.70;99.90;;;;;;5047633;28;20548;-72
2021/01/15 05:30:13;;;;;;;5.33;3.73;;;-1.70;99.90;;;;;;5041249;28;21047;-71
2021/01/15 05:32:39;;;;;;;4.33;3.17;;;-1.60;99.90;;;;;;5037365;28;20831;-72
2021/01/15 05:35:06;;;;;;;4.90;4.40;;;-1.60;99.90;;;;;;5048645;28;20655;-71
2021/01/15 05:37:32;;;;;;;4.80;3.70;;;-1.60;99.90;;;;;;5043319;28;20267;-71
2021/01/15 05:39:59;;;;;;;3.97;3.50;;;-1.50;99.90;;;;;;5045405;28;20832;-72
2021/01/15 05:42:24;;;;;;;5.73;5.10;;;-1.50;99.90;;;;;;5045426;28;20512;-71
2021/01/15 05:44:50;;;;;;;4.30;3.77;;;-1.40;99.90;;;;;;5048535;28;20984;-73
2021/01/15 05:47:15;;;;;;;4.30;3.77;;;-1.30;99.90;;;;;;5046549;28;20587;-72
2021/01/15 05:49:56;;;;;;;6.87;4.23;;;-1.40;99.90;;;;;;5046531;28;20213;-72
2021/01/15 05:52:22;;;;;;;4.90;4.03;;;-1.30;99.90;;;;;;5044055;28;20202;-72
2021/01/15 05:54:49;;;;;;;4.33;3.93;;;-1.30;99.90;;;;;;5048994;28;20438;-72
2021/01/15 05:57:25;;;;;;;3.60;3.30;;;-1.30;99.90;;;;;;5045022;28;20674;-73
2021/01/15 05:59:52;;;;;;;4.27;3.80;;;-1.30;99.90;;;;;;5040281;28;20456;-70
2021/01/15 06:02:17;;;;;;;3.97;3.27;;;-1.30;99.90;;;;;;5049702;28;20968;-73
2021/01/15 06:04:44;;;;;;;5.73;4.80;;;-1.40;99.90;;;;;;5044486;28;20442;-72
2021/01/15 06:07:09;;;;;;;4.87;3.77;;;-1.40;99.90;;;;;;5042015;28;20644;-74
2021/01/15 06:09:39;;;;;;;4.40;4.00;;;-1.40;99.90;;;;;;5042146;28;20497;-73
2021/01/15 06:12:18;;;;;;;4.87;3.83;;;-1.50;99.90;;;;;;5046402;28;20183;-74
2021/01/15 06:14:56;;;;;;;5.03;4.63;;;-1.50;99.90;;;;;;5042572;28;20433;-73
2021/01/15 06:17:22;;;;;;;6.10;4.50;;;-1.40;99.90;;;;;;5041666;28;20449;-73
2021/01/15 06:19:48;;;;;;;5.30;4.27;;;-1.40;99.90;;;;;;5041339;28;20465;-72
2021/01/15 06:22:44;;;;;;;6.37;4.57;;;-1.40;99.90;;;;;;5048077;28;20285;-73
2021/01/15 06:25:32;;;;;;;6.40;4.47;;;-1.40;99.90;;;;;;5041997;28;20511;-73
2021/01/15 06:28:00;;;;;;;5.13;4.10;;;-1.30;99.90;;;;;;5045474;28;20585;-73
2021/01/15 06:30:30;;;;;;;5.70;3.80;;;-1.40;99.90;;;;;;5042286;28;20941;-73
2021/01/15 06:33:07;;;;;;;5.23;4.03;;;-1.50;99.90;;;;;;5049197;28;20883;-74
2021/01/15 06:35:35;;;;;;;5.20;4.70;;;-1.50;99.90;;;;;;5046039;28;20444;-73
2021/01/15 06:38:04;;;;;;;5.17;4.30;;;-1.40;99.90;;;;;;5045273;28;20457;-73
2021/01/15 06:40:41;;;;;;;7.03;5.37;;;-1.40;99.90;;;;;;5050177;28;20447;-73
2021/01/15 06:43:08;;;;;;;5.10;4.37;;;-1.50;99.90;;;;;;5039983;28;20988;-73
2021/01/15 06:45:42;;;;;;;4.80;4.30;;;-1.50;99.90;;;;;;5038869;28;20449;-75
2021/01/15 06:48:10;;;;;;;5.67;5.00;;;-1.50;99.90;;;;;;5044732;28;20523;-74
2021/01/15 06:50:38;;;;;;;6.53;5.00;;;-1.40;99.90;;;;;;5045248;28;20515;-74
2021/01/15 06:53:20;;;;;;;5.73;4.80;;;-1.40;99.90;;;;;;5045796;28;20514;-74
2021/01/15 06:55:54;;;;;;;6.93;5.57;;;-1.30;99.90;;;;;;5042879;28;20948;-75
2021/01/15 06:58:26;;;;;;;5.57;5.07;;;-1.30;99.90;;;;;;5040352;28;21062;-72
2021/01/15 07:01:16;;;;;;;6.83;5.13;;;-1.20;99.90;;;;;;5045971;28;20866;-73
2021/01/15 07:03:53;;;;;;;6.57;5.70;;;-1.30;99.90;;;;;;5058676;28;20791;-73
2021/01/15 07:06:44;;;;;;;6.37;5.87;;;-1.30;99.90;;;;;;5038298;28;20460;-74
2021/01/15 07:09:09;;;;;;;9.00;6.43;;;-1.30;99.90;;;;;;5044941;28;20477;-74
2021/01/15 07:11:41;;;;;;;7.67;6.50;;;-1.40;99.90;;;;;;5045108;28;20436;-73
2021/01/15 07:14:07;;;;;;;7.87;5.40;;;-1.40;99.90;;;;;;5045768;28;20294;-73
2021/01/15 07:16:33;;;;;;;10.70;5.83;;;-1.50;99.90;;;;;;5046146;28;20494;-72
2021/01/15 07:19:05;;;;;;;6.70;5.73;;;-1.40;99.90;;;;;;5046209;28;20256;-73
2021/01/15 07:21:49;;;;;;;9.37;6.97;;;-1.50;99.90;;;;;;5055018;28;20449;-72
2021/01/15 07:24:25;;;;;;;6.70;5.47;;;-1.60;99.90;;;;;;5042479;28;20440;-73
2021/01/15 07:26:53;;;;;;;7.53;6.10;;;-1.70;99.90;;;;;;5041105;28;20490;-72
2021/01/15 07:29:20;;;;;;;7.93;6.80;;;-1.70;99.90;;;;;;5041174;28;20489;-73
2021/01/15 07:31:49;;;;;;;6.97;6.27;;;-1.80;99.90;;;;;;5042924;28;20871;-74
2021/01/15 07:34:17;;;;;;;7.17;6.50;;;-1.60;99.90;;;;;;5043663;28;20513;-73
2021/01/15 07:36:43;;;;;;;7.37;6.10;;;-1.70;99.90;;;;;;5045094;28;20443;-73
2021/01/15 07:39:19;;;;;;;8.70;5.77;;;-1.80;99.90;;;;;;5046130;28;20539;-73
2021/01/15 07:41:48;;;;;;;7.90;6.70;;;-1.90;99.90;;;;;;5041936;28;20780;-73
2021/01/15 07:44:22;;;;;;;9.97;7.03;;;-1.80;99.90;;;;;;5045003;28;20439;-73
2021/01/15 07:46:49;;;;;;;6.93;6.00;;;-1.80;99.90;;;;;;5041764;28;20420;-72
2021/01/15 07:49:14;;;;;;;7.37;5.70;;;-1.80;99.90;;;;;;5038044;28;21012;-73
2021/01/15 07:51:40;;;;;;;8.97;5.40;;;-1.80;99.90;;;;;;5042693;28;20449;-73
2021/01/15 07:54:06;;;;;;;9.13;6.50;;;-1.90;99.90;;;;;;5045747;28;20452;-72
2021/01/15 07:56:31;;;;;;;6.30;5.30;;;-1.90;99.90;;;;;;5044831;28;20198;-72
2021/01/15 07:58:57;;;;;;;9.17;5.40;;;-1.90;99.90;;;;;;5044221;28;20233;-73
2021/01/15 08:01:23;;;;;;;10.20;6.43;;;-1.90;99.90;;;;;;5043283;28;20575;-74
2021/01/15 08:03:57;;;;;;;9.17;6.33;;;-1.80;99.90;;;;;;5046685;28;20524;-73
2021/01/15 08:06:24;;;;;;;7.83;6.90;;;-1.70;99.90;;;;;;5041342;28;20972;-73
2021/01/15 08:09:02;;;;;;;7.37;6.13;;;-1.70;99.90;;;;;;5040376;28;20468;-72
2021/01/15 08:11:32;;;;;;;8.20;6.80;;;-1.70;99.90;;;;;;5040503;28;20951;-75
2021/01/15 08:14:14;;;;;;;10.53;7.17;;;-1.60;99.90;;;;;;5045725;28;20448;-74
2021/01/15 08:16:41;;;;;;;8.70;7.07;;;-1.60;99.90;;;;;;5039823;28;20436;-72
2021/01/15 08:19:13;;;;;;;9.37;8.20;;;-1.50;99.90;;;;;;5041851;28;21302;-72
2021/01/15 08:21:43;;;;;;;10.50;8.20;;;-1.50;99.90;;;;;;5044975;28;20436;-74
2021/01/15 08:24:09;;;;;;;12.17;7.80;;;-1.50;99.90;;;;;;5038967;28;20809;-73
2021/01/15 08:26:45;;;;;;;9.93;8.27;;;-1.40;99.90;;;;;;5040817;28;20441;-73
2021/01/15 08:29:10;;;;;;;13.10;9.27;;;-1.30;99.90;;;;;;5038036;28;20486;-74
2021/01/15 08:31:36;;;;;;;10.87;8.97;;;-1.30;99.90;;;;;;5043564;28;20805;-75
2021/01/15 08:34:06;;;;;;;9.87;7.57;;;-1.20;99.90;;;;;;5045496;28;20199;-73
2021/01/15 08:36:32;;;;;;;9.73;8.13;;;-1.30;99.90;;;;;;5041383;28;20694;-73
2021/01/15 08:38:58;;;;;;;10.77;8.97;;;-1.20;99.90;;;;;;5040199;28;20551;-73
2021/01/15 08:41:27;;;;;;;11.47;8.00;;;-1.10;99.90;;;;;;5041807;28;20946;-74
2021/01/15 08:43:53;;;;;;;8.63;7.67;;;-1.10;99.90;;;;;;5044550;28;20206;-74
2021/01/15 08:46:20;;;;;;;14.63;9.53;;;-1.00;99.90;;;;;;5048496;28;20465;-73
2021/01/15 08:48:47;;;;;;;10.80;8.17;;;-0.90;99.90;;;;;;5039908;28;20473;-74
2021/01/15 08:51:19;;;;;;;11.67;8.33;;;-0.90;99.90;;;;;;5045108;28;20869;-74
2021/01/15 08:54:07;;;;;;;15.93;9.93;;;-0.90;99.90;;;;;;5046227;28;20446;-74
2021/01/15 08:56:44;;;;;;;13.43;8.90;;;-0.80;99.90;;;;;;5043243;28;20427;-75
2021/01/15 08:59:12;;;;;;;10.53;7.73;;;-0.80;99.90;;;;;;5054886;28;20492;-74
2021/01/15 09:01:39;;;;;;;12.10;8.80;;;-0.70;99.90;;;;;;5042224;28;20812;-74
2021/01/15 09:04:10;;;;;;;10.27;8.23;;;-0.60;99.90;;;;;;5044806;28;20440;-73
2021/01/15 09:06:37;;;;;;;11.47;8.57;;;-0.60;99.90;;;;;;5046046;28;21086;-72
2021/01/15 09:09:09;;;;;;;9.17;7.70;;;-0.40;99.90;;;;;;5045202;28;20469;-73
2021/01/15 09:11:40;;;;;;;8.10;7.30;;;-0.50;99.90;;;;;;5049953;28;20534;-75
2021/01/15 09:14:12;;;;;;;13.30;9.10;;;-0.30;99.90;;;;;;5064186;28;20446;-73
2021/01/15 09:16:39;;;;;;;13.03;10.50;;;-0.30;99.90;;;;;;5048704;28;20441;-74
2021/01/15 09:19:12;;;;;;;13.87;9.03;;;-0.20;99.90;;;;;;5055569;28;20492;-72
2021/01/15 09:21:46;;;;;;;11.70;9.40;;;-0.20;99.90;;;;;;5048866;28;20518;-73
2021/01/15 09:24:12;;;;;;;10.30;8.80;;;-0.20;99.90;;;;;;5040872;28;20816;-75
2021/01/15 09:26:37;;;;;;;12.63;9.40;;;0.00;99.90;;;;;;5048357;28;20483;-75
2021/01/15 09:29:03;;;;;;;11.07;9.70;;;0.00;99.90;;;;;;5048125;28;20532;-73
2021/01/15 09:31:28;;;;;;;10.73;9.30;;;0.00;99.90;;;;;;5047343;28;20183;-72
2021/01/15 09:33:54;;;;;;;11.90;9.27;;;0.20;99.90;;;;;;5046129;28;20195;-74
2021/01/15 09:36:24;;;;;;;11.50;8.80;;;0.20;99.90;;;;;;5049748;28;20495;-73
2021/01/15 09:38:51;;;;;;;12.93;9.57;;;0.30;99.90;;;;;;5039613;28;20237;-73
2021/01/15 09:41:17;;;;;;;14.30;10.37;;;0.30;99.90;;;;;;5044698;28;20429;-73
2021/01/15 09:43:43;;;;;;;12.83;9.77;;;0.50;99.90;;;;;;5047142;28;20445;-73
2021/01/15 09:46:22;;;;;;;9.63;8.63;;;0.60;99.90;;;;;;5044742;28;20190;-74
2021/01/15 09:48:47;;;;;;;11.33;8.50;;;0.70;99.90;;;;;;5043826;28;20517;-74
2021/01/15 09:51:13;;;;;;;13.37;9.10;;;0.70;99.90;;;;;;5046290;28;21109;-72
2021/01/15 09:53:38;;;;;;;13.30;9.10;;;0.80;99.90;;;;;;5038084;28;20187;-73
2021/01/15 09:56:04;;;;;;;13.23;9.40;;;1.00;99.90;;;;;;5045181;28;20567;-74
2021/01/15 09:58:30;;;;;;;8.60;7.80;;;1.10;99.90;;;;;;5047838;28;20718;-74
2021/01/15 10:00:55;;;;;;;11.63;9.47;;;1.10;99.90;;;;;;5048118;28;20197;-73
2021/01/15 10:03:21;;;;;;;12.13;8.87;;;1.30;99.90;;;;;;5047678;28;20286;-72
2021/01/15 10:05:46;;;;;;;9.70;7.97;;;1.40;99.90;;;;;;5049227;28;20257;-75
2021/01/15 10:08:12;;;;;;;13.23;8.20;;;1.50;99.90;;;;;;5045539;28;20222;-74
2021/01/15 10:10:37;;;;;;;13.13;9.83;;;1.70;99.90;;;;;;5047409;28;20647;-73
2021/01/15 10:13:03;;;;;;;11.20;8.37;;;1.80;99.90;;;;;;5047498;28;20704;-74
2021/01/15 10:15:28;;;;;;;9.70;7.87;;;1.90;99.90;;;;;;5060542;28;20193;-73
2021/01/15 10:17:54;;;;;;;10.93;8.37;;;1.90;99.90;;;;;;5045528;28;20267;-73
2021/01/15 10:20:25;;;;;;;11.27;8.50;;;2.00;99.90;;;;;;5046790;28;20194;-73
2021/01/15 10:22:51;;;;;;;10.30;8.83;;;2.00;99.90;;;;;;5047584;28;20190;-73
2021/01/15 10:25:16;;;;;;;15.37;10.00;;;2.10;99.90;;;;;;5045613;28;20437;-72
2021/01/15 10:27:42;;;;;;;10.53;9.03;;;2.10;99.90;;;;;;5041104;28;20495;-75
2021/01/15 10:30:08;;;;;;;12.80;9.60;;;2.30;99.90;;;;;;5044262;28;20186;-75
2021/01/15 10:32:33;;;;;;;11.80;8.27;;;2.40;99.90;;;;;;5045887;28;20179;-74
2021/01/15 10:35:00;;;;;;;13.30;9.90;;;2.40;99.90;;;;;;5046011;28;20433;-73
2021/01/15 10:37:25;;;;;;;13.93;9.67;;;2.50;99.90;;;;;;5040200;28;20263;-72
2021/01/15 10:39:51;;;;;;;11.73;9.40;;;2.50;99.90;;;;;;5040422;28;20452;-73
2021/01/15 10:42:16;;;;;;;11.83;8.83;;;2.50;99.90;;;;;;5046230;28;20183;-73
2021/01/15 10:44:42;;;;;;;11.90;9.37;;;2.50;99.90;;;;;;5044343;28;20285;-73
2021/01/15 10:47:07;;;;;;;11.20;9.20;;;2.40;99.90;;;;;;5044456;28;20654;-74
2021/01/15 10:49:33;;;;;;;10.70;8.97;;;2.30;99.90;;;;;;5038619;28;20253;-74
2021/01/15 10:51:58;;;;;;;10.33;8.20;;;2.40;99.90;;;;;;5044591;28;20175;-73
2021/01/15 10:54:24;;;;;;;11.47;9.30;;;2.50;99.90;;;;;;5045052;28;20178;-74
2021/01/15 10:56:52;;;;;;;17.10;10.00;;;2.50;99.90;;;;;;5056857;28;20688;-74
2021/01/15 10:59:18;;;;;;;12.07;9.30;;;2.50;99.90;;;;;;5046388;28;20617;-74
2021/01/15 11:01:48;;;;;;;12.17;9.73;;;2.70;99.90;;;;;;5043624;28;20506;-75
2021/01/15 11:04:16;;;;;;;15.23;11.40;;;2.80;99.90;;;;;;5037000;28;20187;-74
2021/01/15 11:06:52;;;;;;;14.57;9.97;;;2.80;99.90;;;;;;5046049;28;20420;-74
2021/01/15 11:09:22;;;;;;;10.77;8.67;;;3.00;99.90;;;;;;5045367;28;20988;-75
2021/01/15 11:11:48;;;;;;;12.60;11.13;;;2.90;99.90;;;;;;5044526;28;20433;-75
2021/01/15 11:14:15;;;;;;;11.43;9.67;;;3.00;99.90;;;;;;5058336;28;20424;-75
2021/01/15 11:16:41;;;;;;;12.30;10.00;;;2.90;99.90;;;;;;5039571;28;20506;-75
2021/01/15 11:19:06;;;;;;;14.00;10.20;;;2.90;99.90;;;;;;5043163;28;20547;-75
2021/01/15 11:21:32;;;;;;;10.50;8.47;;;2.90;99.90;;;;;;5044169;28;20578;-75
2021/01/15 11:23:57;;;;;;;11.30;9.43;;;2.90;99.90;;;;;;5054805;28;20665;-75
2021/01/15 11:26:28;;;;;;;10.30;9.20;;;2.80;99.90;;;;;;5045617;28;20194;-75
2021/01/15 11:28:56;;;;;;;13.83;9.70;;;2.80;99.90;;;;;;5046174;28;20245;-74
2021/01/15 11:31:24;;;;;;;13.40;9.50;;;3.00;99.90;;;;;;5035179;28;20436;-75
2021/01/15 11:33:51;;;;;;;11.87;10.03;;;3.10;99.90;;;;;;5042364;28;20461;-74
2021/01/15 11:36:17;;;;;;;11.57;9.13;;;3.10;99.90;;;;;;5045276;28;20849;-74
2021/01/15 11:38:43;;;;;;;11.67;9.87;;;3.10;99.90;;;;;;5040782;28;20497;-74
2021/01/15 11:41:12;;;;;;;13.30;9.40;;;3.30;99.90;;;;;;5041985;28;20452;-75
2021/01/15 11:43:38;;;;;;;10.80;9.70;;;3.40;99.90;;;;;;5038027;28;20537;-74
2021/01/15 11:46:04;;;;;;;15.07;11.30;;;3.50;99.90;;;;;;5045301;28;20429;-73
2021/01/15 11:48:31;;;;;;;11.37;9.00;;;3.50;99.90;;;;;;5044326;28;20892;-75
2021/01/15 11:50:57;;;;;;;12.03;9.20;;;3.40;99.90;;;;;;5044543;28;21839;-75
2021/01/15 11:53:23;;;;;;;13.53;10.70;;;3.40;99.90;;;;;;5043706;28;20433;-74
2021/01/15 11:55:50;;;;;;;12.63;10.03;;;3.40;99.90;;;;;;5043308;28;20182;-75
2021/01/15 11:58:16;;;;;;;11.03;9.63;;;3.40;99.90;;;;;;5045130;28;20829;-75
2021/01/15 12:00:42;;;;;;;14.60;10.90;;;3.30;99.90;;;;;;5045248;28;20437;-75
2021/01/15 12:03:08;;;;;;;12.60;9.37;;;3.30;99.90;;;;;;5044057;28;20442;-75
2021/01/15 12:05:38;;;;;;;10.97;9.17;;;3.30;99.90;;;;;;5041972;28;20437;-74
2021/01/15 12:08:04;;;;;;;15.07;11.33;;;3.40;99.90;;;;;;5044904;28;20313;-74
2021/01/15 12:10:30;;;;;;;13.20;9.30;;;3.50;99.90;;;;;;5043714;28;21001;-74
2021/01/15 12:12:55;;;;;;;13.90;10.80;;;3.50;99.90;;;;;;5046260;28;20551;-74
2021/01/15 12:15:21;;;;;;;14.90;11.03;;;3.40;99.90;;;;;;5047960;28;20182;-74
2021/01/15 12:17:46;;;;;;;13.37;10.30;;;3.30;99.90;;;;;;5045393;28;20550;-74
2021/01/15 12:20:12;;;;;;;14.57;11.80;;;3.10;99.90;;;;;;5044931;28;20721;-75
2021/01/15 12:22:38;;;;;;;13.13;10.50;;;3.10;99.90;;;;;;5048181;28;20288;-75
2021/01/15 12:25:04;;;;;;;15.70;12.00;;;3.10;99.90;;;;;;5050129;28;20413;-74
2021/01/15 12:27:29;;;;;;;13.60;10.47;;;3.00;99.90;;;;;;5047977;28;20194;-75
2021/01/15 12:29:55;;;;;;;13.33;11.03;;;2.90;99.90;;;;;;5049971;28;20488;-75
2021/01/15 12:32:20;;;;;;;16.50;12.60;;;3.00;99.90;;;;;;5046736;28;20586;-74
2021/01/15 12:34:46;;;;;;;15.27;11.03;;;2.90;99.90;;;;;;5041755;28;20240;-74
2021/01/15 12:37:11;;;;;;;14.83;11.50;;;3.00;99.90;;;;;;5049408;28;20191;-75
2021/01/15 12:39:37;;;;;;;16.63;11.73;;;3.10;99.90;;;;;;5046591;28;20320;-74
2021/01/15 12:42:02;;;;;;;13.87;11.70;;;3.10;99.90;;;;;;5049429;28;20698;-74
2021/01/15 12:44:28;;;;;;;17.70;13.27;;;3.00;99.90;;;;;;5047999;28;20706;-75
2021/01/15 12:46:53;;;;;;;13.53;11.20;;;3.00;99.90;;;;;;5045667;28;20636;-76
2021/01/15 12:49:19;;;;;;;14.83;10.80;;;3.00;99.90;;;;;;5045045;28;20210;-75
2021/01/15 12:51:44;;;;;;;23.83;12.90;;;2.80;99.90;;;;;;5041469;28;20232;-74
2021/01/15 12:54:10;;;;;;;19.73;12.50;;;2.70;99.90;;;;;;5049402;28;20190;-75